Página principal
METAR-TAF:

METAR-TAF

Aeroportos :

Aeroporto de Nome

Nome, Alasca, Estados Unidos

latitude: 64-30-43N, longitude: 165-26-42W, altura: 11 m

Observação actual do tempo

O boletim foi feito há 1 hora e 21 minutos, às 19:53 UTC
Vento 7 kt de sudoeste
Temperatura 8°C
Humidade 71%
Pressão 1025 hPa
Visibilidade: 16.1 km
Céu limpo

METAR: PAOM 151953Z 23007KT 10SM CLR 08/03 A3028 RMK AO2 SLP255 T00780028

Hora: 13:14 (21:14 UTC)

Previsão

O boletim foi feito há 3 horas e 54 minutos, às 17:20 UTC
Previsão válida de 15 às 18 UTC a 16 às 18 UTC
Vento 3 kt com direcção variável
Visibilidade: 10 km
Poucas nuvensa uma altura de 25000 ft

TAF: PAOM 151720Z 1518/1618 VRB03KT P6SM FEW250

Observações e previsões do tempo de mais de 4000 aeroportos (mensagens METAR e TAF).

As estações disponíveis são os pontos amarelos e vermelhos sobre o mapa.

Mova o rato sobre o mapa para ver o nome da estação.

Depois clique no ponto para visualizar as observações e previsões meteorológicas.

Para alterar o mapa : clique nos botões verdes com uma cruz preta para aumentar o zoom; no botão verde com uma pitada de zoom; ou nas setas verdes para mapas adjacentes.


METAR-TAF: